createdAt,value
2023-05-21T00:00:20.782Z,101257.50
2023-05-21T00:01:43.687Z,101254.55
2023-05-21T00:02:47.017Z,101256.42
2023-05-21T00:03:50.869Z,101251.64
2023-05-21T00:04:53.839Z,101249.03
2023-05-21T00:05:57.084Z,101249.41
2023-05-21T00:07:00.035Z,101247.27
2023-05-21T00:08:02.992Z,101249.25
2023-05-21T00:09:06.661Z,101247.46
2023-05-21T00:10:10.208Z,101248.77
2023-05-21T00:11:13.167Z,101248.80
2023-05-21T00:12:16.110Z,101249.08
2023-05-21T00:13:19.011Z,101250.55
2023-05-21T00:14:21.923Z,101250.11
2023-05-21T00:15:24.887Z,101248.45
2023-05-21T00:16:28.377Z,101249.58
2023-05-21T00:17:31.303Z,101250.15
2023-05-21T00:18:34.406Z,101250.14
2023-05-21T00:19:37.326Z,101251.05
2023-05-21T00:20:41.760Z,101249.84
2023-05-21T00:21:46.025Z,101246.63
2023-05-21T00:22:49.227Z,101248.14
2023-05-21T00:23:56.643Z,101244.27
2023-05-21T00:24:59.949Z,101247.47
2023-05-21T00:26:03.032Z,101247.09
2023-05-21T00:27:05.985Z,101251.30
2023-05-21T00:28:08.926Z,101252.40
2023-05-21T00:29:11.900Z,101250.64
2023-05-21T00:30:15.544Z,101249.68
2023-05-21T00:31:19.237Z,101249.02
2023-05-21T00:32:22.232Z,101257.38
2023-05-21T00:33:26.743Z,101251.66
2023-05-21T00:34:29.839Z,101252.95
2023-05-21T00:35:32.789Z,101253.66
2023-05-21T00:36:35.751Z,101256.84
2023-05-21T00:37:39.152Z,101253.19
2023-05-21T00:38:46.479Z,101255.07
2023-05-21T00:39:49.565Z,101256.77
2023-05-21T00:40:52.444Z,101253.73
2023-05-21T00:41:56.984Z,101254.84
2023-05-21T00:43:00.390Z,101260.77
2023-05-21T00:44:03.364Z,101258.95
2023-05-21T00:45:08.104Z,101258.23
2023-05-21T00:46:18.157Z,101256.81
2023-05-21T00:47:25.060Z,101265.12
2023-05-21T00:48:28.045Z,101258.52
2023-05-21T00:49:31.615Z,101259.85
2023-05-21T00:50:36.244Z,101257.05
2023-05-21T00:51:39.262Z,101263.09
2023-05-21T00:52:44.082Z,101258.55
2023-05-21T00:53:49.842Z,101262.66
2023-05-21T00:54:53.456Z,101268.95
2023-05-21T00:55:56.758Z,101261.81
2023-05-21T00:57:01.674Z,101260.14
2023-05-21T00:58:05.218Z,101258.67
2023-05-21T00:59:08.490Z,101256.70
2023-05-21T01:00:14.670Z,101255.90
2023-05-21T01:01:18.592Z,101255.50
2023-05-21T01:02:24.444Z,101256.08
2023-05-21T01:03:27.984Z,101261.69
2023-05-21T01:04:31.802Z,101259.04
2023-05-21T01:05:36.785Z,101257.92
2023-05-21T01:06:39.997Z,101259.66
2023-05-21T01:07:43.500Z,101259.46
2023-05-21T01:08:46.990Z,101255.86
2023-05-21T01:09:49.953Z,101258.08
2023-05-21T01:10:55.098Z,101254.61
2023-05-21T01:12:00.499Z,101254.69
2023-05-21T01:13:03.963Z,101255.65
2023-05-21T01:14:09.481Z,101252.38
2023-05-21T01:15:13.217Z,101253.17
2023-05-21T01:16:18.061Z,101252.27
2023-05-21T01:17:24.531Z,101250.89
2023-05-21T01:18:28.303Z,101249.64
2023-05-21T01:19:32.779Z,101251.60
2023-05-21T01:20:36.355Z,101248.48
2023-05-21T01:21:44.957Z,101248.13
2023-05-21T01:22:55.349Z,101245.95
2023-05-21T01:24:00.147Z,101247.17
2023-05-21T01:25:03.861Z,101247.11
2023-05-21T01:26:07.485Z,101245.40
2023-05-21T01:27:10.688Z,101249.13
2023-05-21T01:28:14.851Z,101250.70
2023-05-21T01:29:18.318Z,101248.38
2023-05-21T01:30:23.795Z,101251.55
2023-05-21T01:31:46.312Z,101251.94
2023-05-21T01:33:02.563Z,101246.27
2023-05-21T01:34:11.220Z,101243.95
2023-05-21T01:35:21.203Z,101248.73
2023-05-21T01:36:29.263Z,101246.91
2023-05-21T01:37:46.699Z,101249.28
2023-05-21T01:38:56.748Z,101242.02
2023-05-21T01:40:09.066Z,101248.19
2023-05-21T01:41:16.809Z,101248.78
2023-05-21T01:42:22.385Z,101244.58
2023-05-21T01:43:28.018Z,101247.84
2023-05-21T01:44:32.281Z,101245.35
2023-05-21T01:45:39.715Z,101247.23
2023-05-21T01:46:42.727Z,101244.61
2023-05-21T01:47:49.546Z,101254.74
2023-05-21T01:48:54.578Z,101248.92
2023-05-21T01:49:57.626Z,101242.58
2023-05-21T01:51:04.437Z,101243.05
2023-05-21T01:52:07.998Z,101239.78
2023-05-21T01:53:11.090Z,101239.06
2023-05-21T01:54:14.334Z,101239.86
2023-05-21T01:55:18.373Z,101235.30
2023-05-21T01:56:26.034Z,101240.68
2023-05-21T01:57:29.434Z,101237.17
2023-05-21T01:58:32.686Z,101242.79
2023-05-21T01:59:36.563Z,101241.85
2023-05-21T02:00:40.144Z,101242.16
2023-05-21T02:01:43.547Z,101243.84
2023-05-21T02:02:47.037Z,101243.34
2023-05-21T02:03:50.020Z,101247.88
2023-05-21T02:04:53.082Z,101250.31
2023-05-21T02:05:56.186Z,101251.34
2023-05-21T02:06:59.157Z,101248.57
2023-05-21T02:08:02.148Z,101249.34
2023-05-21T02:09:05.594Z,101242.76
2023-05-21T02:10:08.804Z,101241.89
2023-05-21T02:11:11.742Z,101242.50
2023-05-21T02:12:14.703Z,101247.21
2023-05-21T02:13:20.937Z,101247.59
2023-05-21T02:14:25.506Z,101243.48
2023-05-21T02:15:28.482Z,101240.46
2023-05-21T02:16:31.838Z,101243.45
2023-05-21T02:17:35.521Z,101242.20
2023-05-21T02:18:38.783Z,101242.91
2023-05-21T02:19:43.505Z,101243.90
2023-05-21T02:20:46.717Z,101241.83
2023-05-21T02:21:49.609Z,101245.58
2023-05-21T02:22:52.575Z,101242.41
2023-05-21T02:23:55.857Z,101245.25
2023-05-21T02:24:59.302Z,101244.23
2023-05-21T02:26:02.295Z,101241.69
2023-05-21T02:27:06.465Z,101243.33
2023-05-21T02:28:09.411Z,101247.54
2023-05-21T02:29:12.686Z,101242.86
2023-05-21T02:30:16.388Z,101242.83
2023-05-21T02:31:19.402Z,101238.91
2023-05-21T02:32:23.761Z,101243.41
2023-05-21T02:33:26.757Z,101243.96
2023-05-21T02:34:32.391Z,101241.04
2023-05-21T02:35:36.138Z,101241.90
2023-05-21T02:36:42.036Z,101238.55
2023-05-21T02:37:45.165Z,101244.90
2023-05-21T02:38:48.064Z,101236.67
2023-05-21T02:39:51.160Z,101236.95
2023-05-21T02:40:54.524Z,101231.79
2023-05-21T02:41:57.593Z,101233.46
2023-05-21T02:43:00.593Z,101233.63
2023-05-21T02:44:07.113Z,101232.29
2023-05-21T02:45:11.767Z,101229.41
2023-05-21T02:46:15.809Z,101230.40
2023-05-21T02:47:20.016Z,101230.10
2023-05-21T02:48:22.936Z,101229.81
2023-05-21T02:49:25.877Z,101229.77
2023-05-21T02:50:29.038Z,101229.18
2023-05-21T02:51:34.077Z,101229.65
2023-05-21T02:52:37.010Z,101235.04
2023-05-21T02:53:39.907Z,101229.23
2023-05-21T02:54:42.816Z,101232.06
2023-05-21T02:55:45.766Z,101227.33
2023-05-21T02:56:48.677Z,101227.93
2023-05-21T02:57:51.928Z,101226.59
2023-05-21T02:58:55.075Z,101230.69
2023-05-21T02:59:58.219Z,101227.29
2023-05-21T03:01:01.186Z,101229.61
2023-05-21T03:02:04.350Z,101238.98
2023-05-21T03:03:07.627Z,101238.22
2023-05-21T03:04:12.108Z,101233.35
2023-05-21T03:05:15.130Z,101241.30
2023-05-21T03:06:18.134Z,101240.77
2023-05-21T03:07:21.875Z,101229.42
2023-05-21T03:08:24.956Z,101228.55
2023-05-21T03:09:28.492Z,101227.13
2023-05-21T03:10:33.476Z,101227.88
2023-05-21T03:11:36.947Z,101227.34
2023-05-21T03:12:39.990Z,101225.81
2023-05-21T03:13:43.227Z,101230.05
2023-05-21T03:14:46.592Z,101226.16
2023-05-21T03:15:49.761Z,101225.66
2023-05-21T03:16:52.746Z,101225.45
2023-05-21T03:17:55.974Z,101225.73
2023-05-21T03:18:59.619Z,101223.70
2023-05-21T03:20:05.215Z,101221.25
2023-05-21T03:21:08.731Z,101217.80
2023-05-21T03:22:12.083Z,101217.13
2023-05-21T03:23:16.865Z,101215.13
2023-05-21T03:24:20.326Z,101215.14
2023-05-21T03:25:25.385Z,101216.86
2023-05-21T03:26:29.602Z,101213.55
2023-05-21T03:27:33.167Z,101213.44
2023-05-21T03:28:36.247Z,101210.91
2023-05-21T03:29:40.301Z,101214.67
2023-05-21T03:30:46.542Z,101208.93
2023-05-21T03:32:18.714Z,101211.55
2023-05-21T03:33:27.581Z,101212.60
2023-05-21T03:34:31.299Z,101209.34
2023-05-21T03:35:35.114Z,101215.31
2023-05-21T03:36:38.305Z,101206.58
2023-05-21T03:37:41.365Z,101207.87
2023-05-21T03:38:44.959Z,101206.05
2023-05-21T03:39:48.351Z,101204.27
2023-05-21T03:40:51.298Z,101207.75
2023-05-21T03:41:54.205Z,101203.40
2023-05-21T03:43:02.722Z,101197.83
2023-05-21T03:44:05.998Z,101197.91
2023-05-21T03:45:19.553Z,101197.47
2023-05-21T03:46:51.443Z,101198.05
2023-05-21T03:48:03.658Z,101196.50
2023-05-21T03:49:07.026Z,101200.88
2023-05-21T03:50:11.109Z,101200.38
2023-05-21T03:51:14.308Z,101204.70
2023-05-21T03:52:17.189Z,101204.96
2023-05-21T03:53:20.185Z,101203.48
2023-05-21T03:54:23.454Z,101204.41
2023-05-21T03:55:28.122Z,101207.65
2023-05-21T03:56:31.980Z,101209.59
2023-05-21T03:57:34.998Z,101206.65
2023-05-21T03:58:38.539Z,101208.47
2023-05-21T03:59:42.045Z,101207.80
2023-05-21T04:00:45.598Z,101208.38
2023-05-21T04:01:48.548Z,101206.43
2023-05-21T04:02:53.071Z,101207.61
2023-05-21T04:03:56.203Z,101207.21
2023-05-21T04:04:59.817Z,101205.59
2023-05-21T04:06:04.079Z,101208.10
2023-05-21T04:07:14.652Z,101206.83
2023-05-21T04:08:17.803Z,101208.77
2023-05-21T04:09:21.013Z,101215.52
2023-05-21T04:10:23.914Z,101213.22
2023-05-21T04:11:26.884Z,101212.93
2023-05-21T04:12:29.843Z,101213.27
2023-05-21T04:13:33.919Z,101214.23
2023-05-21T04:14:40.359Z,101208.67
2023-05-21T04:15:44.712Z,101212.63
2023-05-21T04:16:49.180Z,101209.05
2023-05-21T04:17:52.538Z,101210.23
2023-05-21T04:18:55.818Z,101213.11
2023-05-21T04:20:01.877Z,101211.13
2023-05-21T04:21:06.385Z,101210.35
2023-05-21T04:22:10.667Z,101209.30
2023-05-21T04:23:13.633Z,101210.94
2023-05-21T04:24:16.856Z,101207.55
2023-05-21T04:25:35.519Z,101209.00
2023-05-21T04:26:42.386Z,101203.93
2023-05-21T04:27:47.845Z,101202.55
2023-05-21T04:28:51.246Z,101203.61
2023-05-21T04:29:54.858Z,101203.86
2023-05-21T04:30:59.244Z,101205.95
2023-05-21T04:32:02.552Z,101201.69
2023-05-21T04:33:05.519Z,101204.02
2023-05-21T04:34:10.484Z,101199.00
2023-05-21T04:35:15.316Z,101201.71
2023-05-21T04:36:18.430Z,101195.87
2023-05-21T04:37:24.631Z,101192.90
2023-05-21T04:38:27.775Z,101195.75
2023-05-21T04:39:31.639Z,101192.16
2023-05-21T04:40:36.640Z,101192.61
2023-05-21T04:41:40.413Z,101189.77
2023-05-21T04:42:43.955Z,101193.80
2023-05-21T04:43:48.049Z,101197.05
2023-05-21T04:44:51.314Z,101196.08
2023-05-21T04:45:57.567Z,101195.23
2023-05-21T04:47:01.112Z,101194.70
2023-05-21T04:48:04.481Z,101196.61
2023-05-21T04:49:08.034Z,101196.92
2023-05-21T04:50:11.106Z,101196.41
2023-05-21T04:51:15.162Z,101195.39
2023-05-21T04:52:18.551Z,101198.52
2023-05-21T04:53:23.037Z,101199.92
2023-05-21T04:54:26.466Z,101195.43
2023-05-21T04:55:29.404Z,101195.39
2023-05-21T04:56:33.026Z,101192.83
2023-05-21T04:57:37.581Z,101198.20
2023-05-21T04:58:41.090Z,101198.91
2023-05-21T04:59:44.071Z,101195.05
2023-05-21T05:00:47.508Z,101194.83
2023-05-21T05:01:51.500Z,101194.13
2023-05-21T05:02:54.505Z,101195.45
2023-05-21T05:03:57.745Z,101193.09
2023-05-21T05:05:00.857Z,101194.64
2023-05-21T05:06:04.679Z,101192.45
2023-05-21T05:07:07.648Z,101192.17
2023-05-21T05:08:13.831Z,101195.86
2023-05-21T05:09:19.125Z,101198.41
2023-05-21T05:10:22.091Z,101193.80
2023-05-21T05:11:26.443Z,101195.80
2023-05-21T05:12:29.716Z,101191.14
2023-05-21T05:13:34.367Z,101194.99
2023-05-21T05:14:37.439Z,101190.94
2023-05-21T05:15:40.457Z,101195.46
2023-05-21T05:16:44.560Z,101193.73
2023-05-21T05:17:50.645Z,101196.78
2023-05-21T05:18:53.893Z,101197.58
2023-05-21T05:19:57.595Z,101196.05
2023-05-21T05:21:01.732Z,101196.02
2023-05-21T05:22:05.079Z,101195.48
2023-05-21T05:23:08.049Z,101195.80
2023-05-21T05:24:11.066Z,101192.83
2023-05-21T05:25:14.021Z,101191.46
2023-05-21T05:26:17.099Z,101191.59
2023-05-21T05:27:20.054Z,101192.02
2023-05-21T05:28:22.953Z,101194.33
2023-05-21T05:29:26.139Z,101195.77
2023-05-21T05:30:29.435Z,101195.92
2023-05-21T05:31:37.242Z,101196.09
2023-05-21T05:32:40.439Z,101197.48
2023-05-21T05:33:44.191Z,101195.88
2023-05-21T05:34:48.091Z,101192.62
2023-05-21T05:35:51.424Z,101193.41
2023-05-21T05:36:54.417Z,101199.70
2023-05-21T05:37:58.353Z,101194.65
2023-05-21T05:39:01.328Z,101194.94
2023-05-21T05:40:05.843Z,101197.06
2023-05-21T05:41:08.824Z,101194.19
2023-05-21T05:42:11.824Z,101196.23
2023-05-21T05:43:14.778Z,101194.29
2023-05-21T05:44:17.823Z,101196.65
2023-05-21T05:45:21.414Z,101203.37
2023-05-21T05:46:24.852Z,101195.34
2023-05-21T05:47:38.045Z,101190.83
2023-05-21T05:48:41.098Z,101189.12
2023-05-21T05:49:45.038Z,101191.70
2023-05-21T05:50:48.432Z,101188.95
2023-05-21T05:51:51.560Z,101188.04
2023-05-21T05:52:57.835Z,101185.71
2023-05-21T05:54:01.011Z,101186.70
2023-05-21T05:55:04.439Z,101184.39
2023-05-21T05:56:07.804Z,101185.58
2023-05-21T05:57:11.083Z,101187.04
2023-05-21T05:58:14.645Z,101183.08
2023-05-21T05:59:43.785Z,101185.45
2023-05-21T06:00:47.721Z,101187.11
2023-05-21T06:01:53.153Z,101183.06
2023-05-21T06:02:57.058Z,101178.97
2023-05-21T06:04:00.202Z,101178.59
2023-05-21T06:05:04.746Z,101179.42
2023-05-21T06:06:07.692Z,101181.02
2023-05-21T06:07:11.526Z,101179.76
2023-05-21T06:08:14.506Z,101181.23
2023-05-21T06:09:17.520Z,101189.12
2023-05-21T06:10:20.818Z,101187.30
2023-05-21T06:11:23.885Z,101188.48
2023-05-21T06:12:26.845Z,101188.80
2023-05-21T06:13:29.852Z,101191.56
2023-05-21T06:14:33.103Z,101188.02
2023-05-21T06:15:36.676Z,101189.75
2023-05-21T06:16:40.675Z,101190.42
2023-05-21T06:17:43.880Z,101191.23
2023-05-21T06:18:48.579Z,101192.07
2023-05-21T06:19:51.709Z,101190.30
2023-05-21T06:20:55.399Z,101186.98
2023-05-21T06:21:58.929Z,101195.23
2023-05-21T06:23:02.195Z,101194.16
2023-05-21T06:24:05.533Z,101194.16
2023-05-21T06:25:10.694Z,101188.58
2023-05-21T06:26:14.572Z,101186.39
2023-05-21T06:27:18.059Z,101189.27
2023-05-21T06:28:21.290Z,101186.56
2023-05-21T06:29:24.381Z,101185.13
2023-05-21T06:30:27.695Z,101187.77
2023-05-21T06:31:33.186Z,101187.83
2023-05-21T06:32:36.429Z,101189.13
2023-05-21T06:33:40.904Z,101190.26
2023-05-21T06:34:44.108Z,101188.92
2023-05-21T06:35:47.258Z,101189.91
2023-05-21T06:36:51.447Z,101190.20
2023-05-21T06:37:54.470Z,101187.50
2023-05-21T06:38:57.582Z,101187.83
2023-05-21T06:40:00.896Z,101189.71
2023-05-21T06:41:04.317Z,101190.55
2023-05-21T06:42:27.565Z,101190.14
2023-05-21T06:43:50.885Z,101190.42
2023-05-21T06:45:12.946Z,101181.71
2023-05-21T06:46:19.605Z,101182.52
2023-05-21T06:47:22.741Z,101180.56
2023-05-21T06:48:25.719Z,101180.09
2023-05-21T06:49:28.689Z,101173.90
2023-05-21T06:50:32.069Z,101172.78
2023-05-21T06:51:35.993Z,101171.89
2023-05-21T06:52:38.988Z,101168.81
2023-05-21T06:53:43.317Z,101170.86
2023-05-21T06:54:46.557Z,101168.04
2023-05-21T06:55:53.834Z,101168.45
2023-05-21T06:57:17.192Z,101166.91
2023-05-21T06:58:20.193Z,101163.95
2023-05-21T06:59:23.882Z,101165.22
2023-05-21T07:00:27.203Z,101167.17
2023-05-21T07:01:30.875Z,101161.38
2023-05-21T07:02:33.962Z,101161.48
2023-05-21T07:03:37.200Z,101164.58
2023-05-21T07:04:40.210Z,101165.96
2023-05-21T07:05:43.313Z,101169.79
2023-05-21T07:06:48.677Z,101165.65
2023-05-21T07:07:52.730Z,101167.71
2023-05-21T07:08:55.691Z,101163.42
2023-05-21T07:09:58.667Z,101164.48
2023-05-21T07:11:01.807Z,101167.15
2023-05-21T07:12:06.187Z,101163.17
2023-05-21T07:13:09.274Z,101162.93
2023-05-21T07:14:13.442Z,101164.98
2023-05-21T07:15:17.765Z,101163.21
2023-05-21T07:16:20.789Z,101160.61
2023-05-21T07:17:24.617Z,101162.24
2023-05-21T07:18:27.828Z,101162.21
2023-05-21T07:19:30.984Z,101157.24
2023-05-21T07:20:34.815Z,101160.83
2023-05-21T07:21:39.886Z,101163.45
2023-05-21T07:22:44.093Z,101162.39
2023-05-21T07:23:49.715Z,101162.27
2023-05-21T07:24:52.750Z,101161.17
2023-05-21T07:25:56.296Z,101162.95
2023-05-21T07:26:59.582Z,101159.73
2023-05-21T07:28:04.014Z,101158.45
2023-05-21T07:29:08.857Z,101154.73
2023-05-21T07:30:12.183Z,101158.11
2023-05-21T07:31:16.396Z,101157.73
2023-05-21T07:32:23.930Z,101162.12
2023-05-21T07:33:27.149Z,101162.23
2023-05-21T07:34:30.055Z,101159.80
2023-05-21T07:35:32.988Z,101157.69
2023-05-21T07:36:36.110Z,101153.25
2023-05-21T07:37:39.222Z,101157.55
2023-05-21T07:38:44.463Z,101153.32
2023-05-21T07:39:47.491Z,101152.27
2023-05-21T07:40:50.498Z,101154.15
2023-05-21T07:41:53.906Z,101155.92
2023-05-21T07:42:57.234Z,101151.95
2023-05-21T07:44:01.857Z,101152.86
2023-05-21T07:45:05.321Z,101150.83
2023-05-21T07:46:12.110Z,101150.06
2023-05-21T07:47:16.089Z,101148.00
2023-05-21T07:48:19.176Z,101146.35
2023-05-21T07:49:28.359Z,101143.65
2023-05-21T07:50:31.414Z,101152.36
2023-05-21T07:51:34.565Z,101149.21
2023-05-21T07:52:37.479Z,101149.35
2023-05-21T07:53:41.959Z,101147.80
2023-05-21T07:54:46.650Z,101152.74
2023-05-21T07:55:49.798Z,101148.19
2023-05-21T07:56:55.253Z,101147.35
2023-05-21T07:58:20.230Z,101150.23
2023-05-21T07:59:26.051Z,101151.95
2023-05-21T08:00:29.268Z,101150.08
2023-05-21T08:01:33.212Z,101150.34
2023-05-21T08:02:37.191Z,101150.23
2023-05-21T08:03:40.600Z,101148.92
2023-05-21T08:04:44.595Z,101143.94
2023-05-21T08:05:51.172Z,101149.84
2023-05-21T08:06:54.369Z,101145.34
2023-05-21T08:07:57.395Z,101145.23
2023-05-21T08:09:04.799Z,101145.58
2023-05-21T08:10:09.153Z,101144.95
2023-05-21T08:11:12.283Z,101140.23
2023-05-21T08:12:16.174Z,101139.09
2023-05-21T08:13:19.899Z,101139.67
2023-05-21T08:14:23.192Z,101139.20
2023-05-21T08:15:26.579Z,101138.80
2023-05-21T08:16:30.066Z,101136.77
2023-05-21T08:17:33.118Z,101138.80
2023-05-21T08:18:36.372Z,101138.62
2023-05-21T08:19:39.763Z,101130.30
2023-05-21T08:20:43.762Z,101134.46
2023-05-21T08:21:47.780Z,101135.73
2023-05-21T08:22:50.927Z,101136.41
2023-05-21T08:23:54.337Z,101141.71
2023-05-21T08:24:57.263Z,101138.96
2023-05-21T08:26:00.254Z,101136.72
2023-05-21T08:27:03.419Z,101138.86
2023-05-21T08:28:07.455Z,101133.86
2023-05-21T08:29:10.740Z,101133.99
2023-05-21T08:30:14.818Z,101135.27
2023-05-21T08:31:20.551Z,101133.88
2023-05-21T08:32:23.803Z,101128.46
2023-05-21T08:33:27.819Z,101132.98
2023-05-21T08:34:30.721Z,101128.93
2023-05-21T08:36:04.130Z,101129.08
2023-05-21T08:37:12.139Z,101134.18
2023-05-21T08:38:41.445Z,101132.52
2023-05-21T08:39:52.706Z,101131.31
2023-05-21T08:40:56.735Z,101129.34
2023-05-21T08:42:09.909Z,101126.95
2023-05-21T08:43:14.601Z,101127.52
2023-05-21T08:44:24.292Z,101130.86
2023-05-21T08:45:32.721Z,101128.48
2023-05-21T08:46:36.374Z,101135.18
2023-05-21T08:47:42.080Z,101133.41
2023-05-21T08:48:46.988Z,101126.98
2023-05-21T08:49:52.304Z,101124.51
2023-05-21T08:50:55.676Z,101126.02
2023-05-21T08:52:06.735Z,101128.67
2023-05-21T08:53:19.918Z,101126.32
2023-05-21T08:54:30.529Z,101121.40
2023-05-21T08:55:33.705Z,101119.92
2023-05-21T08:56:41.389Z,101130.04
2023-05-21T08:57:44.834Z,101132.10
2023-05-21T08:58:49.445Z,101122.34
2023-05-21T08:59:54.812Z,101124.61
2023-05-21T09:01:01.719Z,101130.98
2023-05-21T09:02:06.164Z,101131.34
2023-05-21T09:03:13.882Z,101131.78
2023-05-21T09:04:21.301Z,101130.41
2023-05-21T09:05:27.674Z,101133.21
2023-05-21T09:06:33.990Z,101129.89
2023-05-21T09:07:44.621Z,101132.83
2023-05-21T09:09:18.881Z,101130.05
2023-05-21T09:10:32.458Z,101131.42
2023-05-21T09:11:35.498Z,101131.19
2023-05-21T09:12:38.552Z,101129.62
2023-05-21T09:13:43.725Z,101129.38
2023-05-21T09:14:52.143Z,101130.92
2023-05-21T09:15:58.977Z,101126.94
2023-05-21T09:17:02.094Z,101127.80
2023-05-21T09:18:05.552Z,101123.17
2023-05-21T09:19:32.485Z,101128.48
2023-05-21T09:20:36.332Z,101125.52
2023-05-21T09:21:39.845Z,101124.09
2023-05-21T09:22:55.709Z,101124.67
2023-05-21T09:24:00.064Z,101125.02
2023-05-21T09:25:10.721Z,101120.83
2023-05-21T09:26:14.176Z,101121.83
2023-05-21T09:27:18.802Z,101125.05
2023-05-21T09:28:22.133Z,101123.23
2023-05-21T09:29:26.467Z,101120.41
2023-05-21T09:30:30.730Z,101121.39
2023-05-21T09:31:36.853Z,101121.78
2023-05-21T09:32:41.075Z,101120.08
2023-05-21T09:33:48.217Z,101118.55
2023-05-21T09:34:51.356Z,101116.90
2023-05-21T09:35:54.357Z,101115.33
2023-05-21T09:36:57.988Z,101109.91
2023-05-21T09:38:08.888Z,101108.66
2023-05-21T09:39:16.547Z,101108.02
2023-05-21T09:40:21.935Z,101111.39
2023-05-21T09:41:36.265Z,101113.44
2023-05-21T09:42:41.030Z,101119.30
2023-05-21T09:43:44.906Z,101113.25
2023-05-21T09:44:49.206Z,101112.13
2023-05-21T09:45:54.201Z,101107.92
2023-05-21T09:47:00.975Z,101113.06
2023-05-21T09:48:04.192Z,101113.06
2023-05-21T09:49:08.185Z,101114.09
2023-05-21T09:50:12.431Z,101116.92
2023-05-21T09:51:21.752Z,101115.14
2023-05-21T09:52:26.381Z,101111.95
2023-05-21T09:53:29.696Z,101110.24
2023-05-21T09:54:34.206Z,101102.32
2023-05-21T09:55:37.104Z,101102.20
2023-05-21T09:56:40.096Z,101102.85
2023-05-21T09:57:44.132Z,101103.14
2023-05-21T09:58:47.122Z,101109.12
2023-05-21T09:59:50.748Z,101106.02
2023-05-21T10:00:55.328Z,101106.98
2023-05-21T10:01:58.388Z,101103.34
2023-05-21T10:03:06.178Z,101106.21
2023-05-21T10:04:10.212Z,101103.61
2023-05-21T10:05:15.630Z,101103.58
2023-05-21T10:06:19.265Z,101102.69
2023-05-21T10:07:26.467Z,101100.89
2023-05-21T10:08:34.040Z,101099.92
2023-05-21T10:09:37.041Z,101100.60
2023-05-21T10:10:42.310Z,101102.96
2023-05-21T10:11:47.488Z,101106.24
2023-05-21T10:13:12.252Z,101106.70
2023-05-21T10:14:19.084Z,101106.48
2023-05-21T10:15:25.409Z,101107.48
2023-05-21T10:16:29.664Z,101104.21
2023-05-21T10:17:32.716Z,101105.94
2023-05-21T10:18:39.432Z,101105.98
2023-05-21T10:19:43.832Z,101102.63
2023-05-21T10:20:47.024Z,101099.10
2023-05-21T10:21:52.722Z,101098.23
2023-05-21T10:22:55.980Z,101098.45
2023-05-21T10:24:01.479Z,101092.26
2023-05-21T10:25:08.918Z,101091.33
2023-05-21T10:26:13.081Z,101089.81
2023-05-21T10:27:17.359Z,101090.23
2023-05-21T10:28:20.531Z,101092.38
2023-05-21T10:29:24.017Z,101091.54
2023-05-21T10:30:27.574Z,101091.67
2023-05-21T10:31:33.254Z,101089.52
2023-05-21T10:32:36.457Z,101094.25
2023-05-21T10:33:42.388Z,101094.76
2023-05-21T10:34:46.847Z,101090.09
2023-05-21T10:35:53.147Z,101091.20
2023-05-21T10:36:58.083Z,101089.73
2023-05-21T10:38:04.671Z,101089.48
2023-05-21T10:39:09.696Z,101081.45
2023-05-21T10:40:13.628Z,101085.58
2023-05-21T10:41:19.169Z,101089.29
2023-05-21T10:42:42.404Z,101088.55
2023-05-21T10:43:45.356Z,101085.83
2023-05-21T10:45:00.229Z,101086.89
2023-05-21T10:46:14.484Z,101084.80
2023-05-21T10:47:40.131Z,101080.48
2023-05-21T10:49:16.699Z,101081.69
2023-05-21T10:50:31.875Z,101077.91
2023-05-21T10:51:56.419Z,101078.06
2023-05-21T10:53:15.265Z,101091.27
2023-05-21T10:54:38.767Z,101079.80
2023-05-21T10:56:37.572Z,101082.73
2023-05-21T10:58:02.557Z,101080.86
2023-05-21T10:59:15.318Z,101074.56
2023-05-21T11:00:20.687Z,101077.14
2023-05-21T11:01:30.210Z,101074.46
2023-05-21T11:02:33.655Z,101074.20
2023-05-21T11:03:38.100Z,101074.27
2023-05-21T11:04:45.606Z,101073.79
2023-05-21T11:05:55.309Z,101070.60
2023-05-21T11:07:01.019Z,101071.04
2023-05-21T11:08:04.425Z,101065.01
2023-05-21T11:09:14.755Z,101063.95
2023-05-21T11:10:38.239Z,101063.70
2023-05-21T11:11:52.507Z,101065.02
2023-05-21T11:13:17.004Z,101065.45
2023-05-21T11:14:43.139Z,101062.92
2023-05-21T11:15:58.284Z,101064.06
2023-05-21T11:17:03.504Z,101062.66
2023-05-21T11:18:09.527Z,101062.96
2023-05-21T11:19:19.203Z,101063.60
2023-05-21T11:20:22.989Z,101058.52
2023-05-21T11:21:30.638Z,101057.48
2023-05-21T11:22:35.551Z,101052.31
2023-05-21T11:24:01.428Z,101055.67
2023-05-21T11:25:04.719Z,101051.10
2023-05-21T11:26:07.745Z,101050.12
2023-05-21T11:27:12.503Z,101054.15
2023-05-21T11:28:15.790Z,101059.23
2023-05-21T11:29:19.956Z,101057.11
2023-05-21T11:30:23.425Z,101048.30
2023-05-21T11:31:27.743Z,101056.27
2023-05-21T11:32:31.745Z,101052.16
2023-05-21T11:33:34.731Z,101049.23
2023-05-21T11:34:46.150Z,101044.27
2023-05-21T11:35:55.145Z,101048.21
2023-05-21T11:37:17.111Z,101049.43
2023-05-21T11:38:20.066Z,101051.09
2023-05-21T11:39:25.583Z,101047.83
2023-05-21T11:40:30.954Z,101049.66
2023-05-21T11:42:10.060Z,101048.92
2023-05-21T11:43:12.961Z,101050.13
2023-05-21T11:44:16.430Z,101056.07
2023-05-21T11:45:21.254Z,101042.64
2023-05-21T11:46:25.253Z,101045.60
2023-05-21T11:47:29.788Z,101050.84
2023-05-21T11:48:33.338Z,101047.67
2023-05-21T11:49:37.454Z,101051.80
2023-05-21T11:50:42.547Z,101051.66
2023-05-21T11:51:46.309Z,101049.80
2023-05-21T11:52:51.172Z,101048.91
2023-05-21T11:53:57.446Z,101046.09
2023-05-21T11:55:00.430Z,101044.10
2023-05-21T11:56:03.706Z,101042.73
2023-05-21T11:57:10.704Z,101045.08
2023-05-21T11:58:14.652Z,101040.40
2023-05-21T11:59:18.809Z,101038.71
2023-05-21T12:00:22.141Z,101040.48
2023-05-21T12:01:25.079Z,101042.30
2023-05-21T12:02:33.078Z,101040.42
2023-05-21T12:03:36.301Z,101036.39
2023-05-21T12:04:39.386Z,101039.40
2023-05-21T12:05:49.535Z,101038.48
2023-05-21T12:06:52.550Z,101042.05
2023-05-21T12:07:56.669Z,101036.95
2023-05-21T12:08:59.687Z,101044.33
2023-05-21T12:10:02.643Z,101042.86
2023-05-21T12:11:05.761Z,101042.43
2023-05-21T12:12:09.660Z,101042.20
2023-05-21T12:13:12.792Z,101039.30
2023-05-21T12:14:15.873Z,101036.61
2023-05-21T12:15:19.020Z,101037.48
2023-05-21T12:16:23.300Z,101035.81
2023-05-21T12:17:26.867Z,101045.84
2023-05-21T12:18:29.852Z,101038.71
2023-05-21T12:19:34.371Z,101039.58
2023-05-21T12:20:37.590Z,101036.45
2023-05-21T12:21:42.264Z,101036.83
2023-05-21T12:22:45.290Z,101035.96
2023-05-21T12:23:48.497Z,101031.68
2023-05-21T12:24:53.761Z,101029.75
2023-05-21T12:25:57.452Z,101029.45
2023-05-21T12:27:02.527Z,101031.52